Delta Virtual Airport Information Service

Austin Bergstrom International Airport

ICAO: KAUS Country: United States
Latitude: 30.1945 Longitude: -97.6698
Latest Arrival : JBU268731 (KLGB-KAUS) Latest Departure : JBU2633251 (KAUS-KMCO)


WX CaptureLIVE
Data provided by noaa.gov | Fetched at 00:25:29

METAR : KAUS 250453Z 31008G17KT 9SM -TSRA BKN025CB OVC031 20/18 A2979 RMK AO2 SLP078 FRQ LTGICCC OHD TS OHD MOV NE P0010 T02000183 $

TAF : KAUS 250424Z 2504/2606 31004KT P6SM -TSRA BKN022CB OVC100 TEMPO 2505/2508 3SM TSRA FM251100 VRB04KT P6SM OVC015 FM251700 15010KT P6SM BKN035


Runway Data for KAUS
Data provided by openaviationdata.com

Runway ID Mag Var Hdg Length Elevation Surface ILS Freq ILS Id ILS Slope
17L 6 172° 9022 ft 494 ft Concrete 110.5 IVNK 3
17R 6 172° 12278 ft 494 ft Concrete 110.3 IGFQ 3
35L 6 352° 12278 ft 494 ft Concrete 110.3 IBSM 3
35R 6 352° 9022 ft 494 ft Concrete 110.5 IHCE 3

Austin Bergstrom International Airport, United States
Use only for reference purposes



Not for navigational purposes.